Flight Track Log - Related Links

Times and Time Zones

All times are in EDT time to prevent confusion due to time zone crossing. See the UAL623 flight status page for this flight to view local times or setup timezone preferences in your user account.

Time Position Orientation Groundspeed Altitude Reporting Facility
EDT Latitude Longitude Course Direction KTS MPH feet Rate Location/Type
Thu 02:55:46 PM 34.0397 -117.5578 99° East 187 215 2,800  Level Los Angeles Center
Thu 02:56:47 PM 33.9864 -117.5489 172° South 247 284 4,200 2,683 Climbing Los Angeles Center
Thu 02:57:00 PM 33.7544 -117.3981 145° Southeast  Level FlightAware Approximate
Thu 02:57:49 PM 33.9000 -117.5150 162° South 267 307 8,300  Level Los Angeles Center
Thu 02:58:00 PM 33.7167 -117.2760 90° East  Level FlightAware Approximate
Thu 02:58:51 PM 33.8200 -117.4444 144° Southeast 292 336 11,100  Level Los Angeles Center
Thu 02:59:00 PM 33.7000 -117.1396 90° East  Level FlightAware Approximate
Thu 02:59:54 PM 33.7406 -117.3736 143° Southeast 345 397 13,300  Level Los Angeles Center
Thu 03:00:00 PM 33.6972 -116.9941 99° East  Level FlightAware Approximate
Thu 03:00:56 PM 33.7231 -117.2567 100° East 357 411 15,900  Level Los Angeles Center
Thu 03:01:58 PM 33.7139 -117.1353 95° East 364 419 17,900 1,756 Climbing Los Angeles Center
Thu 03:02:59 PM 33.7042 -117.0333 97° East 376 433 19,500 2,032 Climbing Los Angeles Center
Thu 03:04:02 PM 33.6883 -116.8447 96° East 404 465 22,100 1,824 Climbing Los Angeles Center
Thu 03:05:04 PM 33.6775 -116.7275 96° East 419 482 23,300 1,645 Climbing Los Angeles Center
Thu 03:06:06 PM 33.6631 -116.5542 96° East 433 498 25,500 1,306 Climbing Los Angeles Center
Thu 03:07:08 PM 33.6508 -116.4092 96° East 436 502 26,000 581 Climbing Los Angeles Center
Thu 03:08:10 PM 33.6367 -116.2636 97° East 438 504 26,700 768 Climbing Los Angeles Center
Thu 03:09:13 PM 33.6264 -116.1144 95° East 446 513 27,600 1,056 Climbing Los Angeles Center
Thu 03:10:15 PM 33.6244 -115.9625 91° East 451 519 28,900 1,258 Climbing Los Angeles Center
Thu 03:11:17 PM 33.6211 -115.8094 91° East 456 525 30,200 1,403 Climbing Los Angeles Center
Thu 03:12:19 PM 33.6178 -115.6200 91° East 471 542 31,800 1,403 Climbing Los Angeles Center
Thu 03:13:21 PM 33.6119 -115.4611 92° East 476 548 33,100 1,210 Climbing Los Angeles Center
Thu 03:14:23 PM 33.6089 -115.3053 91° East 469 540 34,300 1,065 Climbing Los Angeles Center
Thu 03:15:25 PM 33.6056 -115.1481 91° East 472 543 35,300 912 Climbing Los Angeles Center
Thu 03:16:28 PM 33.6000 -114.9900 92° East 475 547 36,200 774 Climbing Los Angeles Center
Thu 03:17:29 PM 33.5972 -114.8331 91° East 473 544 36,900 390 Climbing Los Angeles Center
Thu 03:18:31 PM 33.5883 -114.6761 94° East 473 544 37,000 48 Climbing Los Angeles Center
Thu 03:19:33 PM 33.5689 -114.4881 97° East 474 545 37,000  Level Los Angeles Center
Thu 03:20:49 PM 33.5375 -114.3078 102° East 479 551 37,000  Level Albuquerque Center
Thu 03:21:51 PM 33.5103 -114.1528 102° East 478 550 37,000 -48 Level Albuquerque Center
Thu 03:22:53 PM 33.4811 -113.9978 103° East 478 550 36,900 -49 Descending Albuquerque Center
Thu 03:23:54 PM 33.4478 -113.8106 102° East 479 551 36,900  Level Albuquerque Center
Thu 03:24:56 PM 33.4194 -113.6558 102° East 477 549 36,900  Level Albuquerque Center
Thu 03:25:58 PM 33.3908 -113.5003 102° East 478 550 36,900  Level Albuquerque Center
Thu 03:27:00 PM 33.3619 -113.3456 103° East 476 548 36,900 48 Level Albuquerque Center
Thu 03:28:02 PM 33.3325 -113.1911 103° East 476 548 37,000 48 Climbing Albuquerque Center
Thu 03:29:04 PM 33.3031 -113.0353 103° East 478 550 37,000  Level Albuquerque Center
Thu 03:30:05 PM 33.2731 -112.8781 103° East 482 555 37,000  Level Albuquerque Center
Thu 03:31:07 PM 33.2431 -112.7222 103° East 481 554 37,000  Level Albuquerque Center
Thu 03:32:09 PM 33.2064 -112.5347 103° East 480 552 37,000  Level Albuquerque Center
Thu 03:33:11 PM 33.1739 -112.3675 103° East 482 555 37,000  Level Albuquerque Center
Thu 03:34:13 PM 33.1439 -112.2131 103° East 482 555 37,000  Level Albuquerque Center
Thu 03:35:15 PM 33.1128 -112.0589 104° East 482 555 37,000  Level Albuquerque Center
Thu 03:36:16 PM 33.0797 -111.8931 103° East 481 554 37,000  Level Albuquerque Center
Thu 03:37:18 PM 33.0494 -111.7386 103° East 481 554 37,000  Level Albuquerque Center
Thu 03:38:20 PM 33.0153 -111.5725 104° East 481 554 37,000  Level Albuquerque Center
Thu 03:39:22 PM 32.9847 -111.4167 103° East 484 557 37,000  Level Albuquerque Center
Thu 03:40:24 PM 32.9508 -111.2500 104° East 482 555 37,000  Level Albuquerque Center
Thu 03:41:26 PM 32.9181 -111.0964 104° East 482 555 37,000  Level Albuquerque Center
Thu 03:42:27 PM 32.8872 -110.9453 104° East 483 556 37,000  Level Albuquerque Center
Thu 03:43:29 PM 32.8550 -110.7906 104° East 485 558 37,000  Level Albuquerque Center
Thu 03:44:31 PM 32.8225 -110.6372 104° East 483 556 37,000  Level Albuquerque Center
Thu 03:45:33 PM 32.7903 -110.4847 104° East 483 556 37,000  Level Albuquerque Center
Thu 03:46:35 PM 32.7508 -110.3011 104° East 483 556 37,000  Level Albuquerque Center
Thu 03:47:36 PM 32.7178 -110.1469 104° East 484 557 37,000  Level Albuquerque Center
Thu 03:48:38 PM 32.6831 -109.9933 105° East 487 560 37,000  Level Albuquerque Center
Thu 03:49:40 PM 32.6472 -109.8392 105° East 489 563 37,000  Level Albuquerque Center
Thu 03:50:42 PM 32.6144 -109.6867 104° East 487 560 37,000  Level Albuquerque Center
Thu 03:51:44 PM 32.5744 -109.5022 104° East 488 562 37,000  Level Albuquerque Center
Thu 03:52:46 PM 32.5419 -109.3506 104° East 485 558 37,000  Level Albuquerque Center
Thu 03:53:48 PM 32.5072 -109.1967 105° East 488 562 37,000  Level Albuquerque Center
Thu 03:54:49 PM 32.4722 -109.0433 105° East 489 563 37,000  Level Albuquerque Center
Thu 03:55:51 PM 32.4311 -108.8611 105° East 486 559 37,000  Level Albuquerque Center
Thu 03:56:53 PM 32.3969 -108.7089 105° East 486 559 37,000  Level Albuquerque Center
Thu 03:57:55 PM 32.3617 -108.5553 105° East 488 562 37,000  Level Albuquerque Center
Thu 03:58:57 PM 32.3236 -108.3886 105° East 492 566 37,000  Level Albuquerque Center
Thu 03:59:59 PM 32.2858 -108.2333 106° East 493 567 37,000  Level Albuquerque Center
Thu 04:01:01 PM 32.2508 -108.0775 105° East 492 566 37,000  Level Albuquerque Center
Thu 04:02:03 PM 32.2139 -107.9233 106° East 493 567 37,000 -49 Level Albuquerque Center
Thu 04:03:04 PM 32.1778 -107.7678 105° East 494 568 36,900 -49 Descending Albuquerque Center
Thu 04:04:06 PM 32.1342 -107.5822 105° East 494 568 36,900  Level Albuquerque Center
Thu 04:05:08 PM 32.0972 -107.4286 106° East 493 567 36,900 48 Level Albuquerque Center
Thu 04:06:10 PM 32.0606 -107.2742 106° East 494 568 37,000  Climbing Albuquerque Center
Thu 04:07:12 PM 32.0242 -107.1200 106° East 494 568 36,900  Descending Albuquerque Center
Thu 04:08:14 PM 31.9864 -106.9656 106° East 494 568 37,000 290 Climbing Albuquerque Center
Thu 04:09:16 PM 31.9411 -106.7814 106° East 493 567 37,500 629 Climbing Albuquerque Center
Thu 04:10:18 PM 31.9011 -106.6239 107° East 503 579 38,300 677 Climbing Albuquerque Center
Thu 04:11:20 PM 31.8611 -106.4581 106° East 504 580 38,900 339 Climbing Albuquerque Center
Thu 04:12:22 PM 31.8228 -106.2994 106° East 505 581 39,000 49 Climbing Albuquerque Center
Thu 04:13:23 PM 31.7819 -106.1436 107° East 502 578 39,000  Level Albuquerque Center
Thu 04:14:25 PM 31.7422 -105.9872 107° East 501 577 39,000  Level Albuquerque Center
Thu 04:15:27 PM 31.7025 -105.8303 107° East 501 577 39,000  Level Albuquerque Center
Thu 04:16:29 PM 31.6553 -105.6403 106° East 504 580 39,000 -48 Level Albuquerque Center
Thu 04:17:31 PM 31.6161 -105.4831 106° East 503 579 38,900 -48 Descending Albuquerque Center
Thu 04:18:33 PM 31.5758 -105.3258 107° East 501 577 38,900  Level Albuquerque Center
Thu 04:19:35 PM 31.5361 -105.1711 107° East 496 571 38,900  Level Albuquerque Center
Thu 04:20:36 PM 31.4967 -105.0125 106° East 502 578 38,900  Level Albuquerque Center
Thu 04:21:38 PM 31.4561 -104.8556 107° East 502 578 38,900 48 Level Albuquerque Center
Thu 04:22:40 PM 31.4153 -104.6983 107° East 501 577 39,000 48 Climbing Albuquerque Center
Thu 04:23:42 PM 31.3747 -104.5408 107° East 502 578 39,000  Level Albuquerque Center
Thu 04:24:44 PM 31.3256 -104.3531 107° East 500 575 39,000  Level Albuquerque Center
Thu 04:25:46 PM 31.2844 -104.1967 107° East 502 578 39,000  Level Albuquerque Center
Thu 04:26:48 PM 31.2428 -104.0414 107° East 501 577 39,000 -48 Level Albuquerque Center
Thu 04:27:50 PM 31.2017 -103.8856 107° East 501 577 38,900 -48 Descending Albuquerque Center
Thu 04:28:52 PM 31.1536 -103.7122 108° East 498 573 38,900 49 Level Albuquerque Center
Thu 04:29:53 PM 31.1100 -103.5583 108° East 500 575 39,000  Climbing Albuquerque Center
Thu 04:30:55 PM 31.0669 -103.4042 108° East 501 577 38,900  Descending Albuquerque Center
Thu 04:31:58 PM 31.0256 -103.2511 107° East 499 574 39,000 48 Climbing Albuquerque Center
Thu 04:32:59 PM 30.9850 -103.0989 107° East 495 570 39,000  Level Albuquerque Center
Thu 04:34:01 PM 30.9428 -102.9467 108° East 495 570 39,000 -48 Level Albuquerque Center
Thu 04:35:03 PM 30.8961 -102.7628 106° East 497 572 38,900 -48 Descending Albuquerque Center
Thu 04:36:05 PM 30.8558 -102.6103 107° East 498 573 38,900  Level Albuquerque Center
Thu 04:37:07 PM 30.8164 -102.4583 107° East 497 572 38,900 48 Level Albuquerque Center
Thu 04:38:09 PM 30.7775 -102.3061 107° East 497 572 39,000 48 Climbing Albuquerque Center
Thu 04:39:11 PM 30.7369 -102.1542 107° East 497 572 39,000 -16 Level Albuquerque Center
Thu 04:41:00 PM 30.6683 -101.8992 107° East  Level FlightAware Approximate
Thu 04:44:18 PM 30.5325 -101.3831 108° East 488 562 38,900  Level Houston Center
Thu 04:45:20 PM 30.4831 -101.2025 108° East 490 564 39,000 48 Climbing Houston Center
Thu 04:46:22 PM 30.4428 -101.0517 108° East 490 564 39,000 -48 Level Houston Center
Thu 04:47:00 PM 30.4196 -100.9713 108° East  Level FlightAware Approximate
Thu 04:47:24 PM 30.4000 -100.9031 108° East 489 563 38,900  Level Houston Center
Thu 04:48:00 PM 30.4009 -100.9193 107° East  Level FlightAware Approximate
Thu 04:48:26 PM 30.3592 -100.7550 108° East 483 556 39,000  Level Houston Center
Thu 04:49:00 PM 30.3626 -100.7796 108° East  Level FlightAware Approximate
Thu 04:49:29 PM 30.3186 -100.6061 107° East 485 558 38,900  Level Houston Center
Thu 04:50:31 PM 30.2783 -100.4578 107° East 482 555 38,900 48 Level Houston Center
Thu 04:51:33 PM 30.2367 -100.3083 108° East 482 555 39,000 48 Climbing Houston Center
Thu 04:52:35 PM 30.1944 -100.1561 108° East 485 558 39,000  Level Houston Center
Thu 04:53:37 PM 30.1425 -99.9781 109° East 481 554 39,000 -48 Level Houston Center
Thu 04:54:00 PM 30.1485 -100.0038 108° East  Level FlightAware Approximate
Thu 04:54:39 PM 30.1019 -99.8325 108° East 474 545 38,900  Level Houston Center
Thu 04:55:41 PM 30.0592 -99.6886 109° East 473 544 38,900  Level Houston Center
Thu 04:56:43 PM 30.0178 -99.5444 108° East 474 545 38,900  Level Houston Center
Thu 04:57:45 PM 29.9775 -99.3992 108° East 476 548 38,900 48 Level Houston Center
Thu 04:58:47 PM 29.9364 -99.2539 108° East 477 549 39,000 48 Climbing Houston Center
Thu 04:59:49 PM 29.8869 -99.1114 112° Southeast 479 551 39,000  Level Houston Center
Thu 05:00:51 PM 29.8225 -98.9428 114° Southeast 477 549 39,000  Level Houston Center
Thu 05:01:53 PM 29.7672 -98.7911 113° Southeast 477 549 39,000 -97 Level Houston Center
Thu 05:02:55 PM 29.7150 -98.6511 113° Southeast 475 547 38,800 -532 Descending Houston Center
Thu 05:03:57 PM 29.6683 -98.5094 111° Southeast 474 545 37,900 -871 Descending Houston Center
Thu 05:04:59 PM 29.6478 -98.3394 98° East 492 566 37,000 -435 Descending Houston Center
Thu 05:06:01 PM 29.6486 -98.1847 90° East 485 558 37,000 -194 Level Houston Center
Thu 05:07:03 PM 29.6492 -98.0292 90° East 486 559 36,600 -720 Descending Houston Center
Thu 05:08:06 PM 29.6392 -97.8650 94° East 478 550 35,500 -1,008 Descending Houston Center
Thu 05:09:08 PM 29.6328 -97.7208 93° East 474 545 34,500 -968 Descending Houston Center
Thu 05:10:10 PM 29.6256 -97.5750 93° East 462 532 33,500 -1,839 Descending Houston Center
Thu 05:11:12 PM 29.6183 -97.4317 93° East 452 520 30,700 -2,419 Descending Houston Center
Thu 05:12:14 PM 29.6100 -97.2856 94° East 457 526 28,500 -2,177 Descending Houston Center
Thu 05:13:16 PM 29.6028 -97.1422 93° East 451 519 26,200 -2,226 Descending Houston Center
Thu 05:14:18 PM 29.5942 -96.9781 93° East 430 495 23,900 -2,177 Descending Houston Center
Thu 05:15:20 PM 29.5856 -96.8444 94° East 417 480 21,700 -2,129 Descending Houston Center
Thu 05:16:22 PM 29.5783 -96.7136 94° East 408 470 19,500 -1,887 Descending Houston Center
Thu 05:17:24 PM 29.5714 -96.5867 94° East 401 461 17,800 -1,636 Descending Houston Center
Thu 05:17:39 PM 29.5675 -96.5506 97° East 378 435 17,400 -2,000 Descending Houston Center
Thu 05:17:57 PM 29.5664 -96.5122 92° East 375 432 16,700 -2,043 Descending Houston Center
Thu 05:18:26 PM 29.5642 -96.4653 93° East 387 445 15,800 -2,032 Descending Houston Center
Thu 05:18:59 PM 29.5586 -96.3933 95° East 381 438 14,600 -1,839 Descending Houston Center
Thu 05:19:28 PM 29.5561 -96.3458 93° East 378 435 13,900 -1,672 Descending Houston Center
Thu 05:20:00 PM 29.5500 -96.2694 95° East 366 421 12,900 -1,645 Descending Houston Center
Thu 05:20:30 PM 29.5486 -96.2328 92° East 361 415 12,200 -885 Descending Houston Center
Thu 05:21:01 PM 29.5511 -96.1589 88° East 348 400 12,000 -290 Descending Houston Center
Thu 05:21:32 PM 29.5656 -96.1269 63° Northeast 346 398 11,900  Descending Houston Center
Thu 05:22:08 PM 29.6031 -96.0544 59° Northeast 343 395 12,000  Climbing Houston Center
Thu 05:22:34 PM 29.6222 -96.0133 62° Northeast 343 395 11,900  Descending Houston Center
Thu 05:23:04 PM 29.6458 -95.9681 59° Northeast 341 392 12,000  Climbing Houston Center
Thu 05:23:36 PM 29.6703 -95.9203 60° Northeast 342 394 11,900 -590 Descending Houston Center
Thu 05:24:05 PM 29.6944 -95.8736 59° Northeast 343 395 11,400 -1,258 Descending Houston Center
Thu 05:24:38 PM 29.7172 -95.8261 61° Northeast 340 391 10,600 -1,364 Descending Houston Center
Thu 05:25:11 PM 29.7458 -95.7667 61° Northeast 330 380 9,900 -677 Descending Houston Center
Thu 05:25:40 PM 29.7631 -95.7350 58° Northeast 333 383 9,900  Level Houston Center
Thu 05:26:07 PM 29.7867 -95.6847 62° Northeast 319 367 9,900 -97 Level Houston Center
Thu 05:26:42 PM 29.8058 -95.6483 59° Northeast 317 365 9,800 -985 Descending Houston Center
Thu 05:27:14 PM 29.8314 -95.5978 60° Northeast 288 331 8,800 -1,452 Descending Houston Center
Thu 05:27:44 PM 29.8453 -95.5694 61° Northeast 291 335 8,300 -1,377 Descending Houston Center
Thu 05:28:15 PM 29.8722 -95.5133 61° Northeast 276 318 7,400 -1,645 Descending Houston Center
Thu 05:28:46 PM 29.8919 -95.4778 57° Northeast 275 316 6,600 -1,377 Descending Houston Center
Thu 05:29:16 PM 29.8942 -95.4311 87° East 279 321 6,000 -774 Descending Houston Center
Thu 05:29:48 PM 29.8961 -95.3900 87° East 276 318 5,800 -109 Descending Houston Center
Thu 05:30:11 PM 29.8953 -95.3517 91° East 274 315 5,900  Climbing Houston Center
Thu 05:30:50 PM 29.8969 -95.3039 88° East 269 310 5,800  Descending Houston Center
Thu 05:31:18 PM 29.8972 -95.2597 90° East 266 306 5,900  Climbing Houston Center
Thu 05:31:52 PM 29.8969 -95.2172 90° East 268 308 5,800  Descending Houston Center
Thu 05:32:19 PM 29.8972 -95.1681 90° East 269 310 5,900  Climbing Houston Center
Thu 05:32:54 PM 29.8975 -95.1314 89° East 266 306 5,800 -197 Descending Houston Center
Thu 05:33:20 PM 29.8964 -95.0911 92° East 216 249 5,700 -677 Descending Houston Center
Thu 05:33:56 PM 29.9033 -95.0608 75° East 233 268 5,100 -1,180 Descending Houston Center
Thu 05:34:21 PM 29.9347 -95.0528 13° North 215 247 4,500 -968 Descending Houston Center
Thu 05:34:58 PM 29.9597 -95.0500 North 208 239 4,100 -581 Descending Houston Center
Thu 05:35:23 PM 29.9842 -95.0658 331° Northwest 188 216 3,900 -677 Descending Houston Center
Thu 05:36:00 PM 29.9925 -95.1008 285° West 195 224 3,400 -800 Descending Houston Center
Thu 05:36:23 PM 29.9922 -95.1275 269° West 191 220 3,100 -581 Descending Houston Center
Thu 05:37:02 PM 29.9944 -95.1594 275° West 189 217 2,800 -462 Descending Houston Center

Login

Don't have an account? Register now (free) for customized features, flight alerts, and more!